createdAt,value
2018-09-11T00:00:06.331Z,15.70
2018-09-11T00:02:34.501Z,15.60
2018-09-11T00:05:02.680Z,15.60
2018-09-11T00:07:30.872Z,15.60
2018-09-11T00:09:59.053Z,15.60
2018-09-11T00:12:27.240Z,15.60
2018-09-11T00:14:55.957Z,15.60
2018-09-11T00:17:24.129Z,15.60
2018-09-11T00:19:52.328Z,15.60
2018-09-11T00:22:21.596Z,15.50
2018-09-11T00:24:49.768Z,15.60
2018-09-11T00:27:17.953Z,15.60
2018-09-11T00:29:46.434Z,15.50
2018-09-11T00:32:14.621Z,15.50
2018-09-11T00:34:42.792Z,15.60
2018-09-11T00:37:11.365Z,15.60
2018-09-11T00:39:39.545Z,15.60
2018-09-11T00:42:07.690Z,15.50
2018-09-11T00:44:36.271Z,15.60
2018-09-11T00:47:04.416Z,15.60
2018-09-11T00:49:32.591Z,15.50
2018-09-11T00:52:01.337Z,15.50
2018-09-11T00:54:29.469Z,15.50
2018-09-11T00:56:57.764Z,15.50
2018-09-11T00:59:25.947Z,15.50
2018-09-11T01:01:54.118Z,15.50
2018-09-11T01:04:22.274Z,15.50
2018-09-11T01:06:51.263Z,15.40
2018-09-11T01:09:19.423Z,15.40
2018-09-11T01:11:47.575Z,15.40
2018-09-11T01:14:16.094Z,15.30
2018-09-11T01:16:44.259Z,15.40
2018-09-11T01:19:12.407Z,15.40
2018-09-11T01:21:41.230Z,15.50
2018-09-11T01:24:09.543Z,15.50
2018-09-11T01:26:37.702Z,15.50
2018-09-11T01:29:05.867Z,15.50
2018-09-11T01:31:34.039Z,15.50
2018-09-11T01:34:02.195Z,15.50
2018-09-11T01:36:30.706Z,15.40
2018-09-11T01:38:58.859Z,15.40
2018-09-11T01:41:27.007Z,15.40
2018-09-11T01:43:56.138Z,15.40
2018-09-11T01:46:24.275Z,15.30
2018-09-11T01:48:52.414Z,15.30
2018-09-11T01:51:20.846Z,15.30
2018-09-11T01:53:48.998Z,15.30
2018-09-11T01:56:17.154Z,15.30
2018-09-11T01:58:45.706Z,15.40
2018-09-11T02:01:13.858Z,15.30
2018-09-11T02:03:42.007Z,15.30
2018-09-11T02:06:10.179Z,15.30
2018-09-11T02:08:38.325Z,15.30
2018-09-11T02:11:06.494Z,15.30
2018-09-11T02:13:35.347Z,15.20
2018-09-11T02:16:03.499Z,15.20
2018-09-11T02:18:31.704Z,15.30
2018-09-11T02:21:00.187Z,15.30
2018-09-11T02:23:28.330Z,15.40
2018-09-11T02:25:56.565Z,15.50
2018-09-11T02:28:26.551Z,15.50
2018-09-11T02:30:54.694Z,15.50
2018-09-11T02:33:22.862Z,15.60
2018-09-11T02:35:51.628Z,15.60
2018-09-11T02:38:19.730Z,15.60
2018-09-11T02:40:47.879Z,15.60
2018-09-11T02:43:16.602Z,15.60
2018-09-11T02:45:44.761Z,15.60
2018-09-11T02:48:12.954Z,15.60
2018-09-11T02:50:41.654Z,15.70
2018-09-11T02:53:09.803Z,15.70
2018-09-11T02:55:37.951Z,15.70
2018-09-11T02:58:06.771Z,15.70
2018-09-11T03:00:34.914Z,15.80
2018-09-11T03:03:03.077Z,15.80
2018-09-11T03:05:31.503Z,15.80
2018-09-11T03:07:59.656Z,15.80
2018-09-11T03:10:27.790Z,15.80
2018-09-11T03:12:55.959Z,15.80
2018-09-11T03:15:24.094Z,15.80
2018-09-11T03:17:52.223Z,15.80
2018-09-11T03:20:20.471Z,15.80
2018-09-11T03:22:48.607Z,15.80
2018-09-11T03:25:16.747Z,15.80
2018-09-11T03:27:45.542Z,15.80
2018-09-11T03:30:13.722Z,15.80
2018-09-11T03:32:41.912Z,15.80
2018-09-11T03:35:10.427Z,15.80
2018-09-11T03:37:38.574Z,15.80
2018-09-11T03:40:06.774Z,15.80
2018-09-11T03:42:34.967Z,15.80
2018-09-11T03:45:03.154Z,15.80
2018-09-11T03:47:31.302Z,15.80
2018-09-11T03:49:59.468Z,15.80
2018-09-11T03:52:27.602Z,15.80
2018-09-11T03:54:55.751Z,15.80
2018-09-11T03:57:23.919Z,15.80
2018-09-11T03:59:52.066Z,15.80
2018-09-11T04:02:20.199Z,15.80
2018-09-11T04:04:48.739Z,15.80
2018-09-11T04:07:16.898Z,15.80
2018-09-11T04:09:47.405Z,15.90
2018-09-11T04:12:15.659Z,15.80
2018-09-11T04:14:43.802Z,15.90
2018-09-11T04:17:11.971Z,15.80
2018-09-11T04:19:40.854Z,15.80
2018-09-11T04:22:08.996Z,15.80
2018-09-11T04:24:37.175Z,15.80
2018-09-11T04:27:05.386Z,15.70
2018-09-11T04:29:33.890Z,15.70
2018-09-11T04:32:02.036Z,15.70
2018-09-11T04:34:30.208Z,15.70
2018-09-11T04:36:58.351Z,15.70
2018-09-11T04:39:26.502Z,15.60
2018-09-11T04:41:55.346Z,15.60
2018-09-11T04:44:23.568Z,15.60
2018-09-11T04:46:51.720Z,15.60
2018-09-11T04:49:20.805Z,15.60
2018-09-11T04:51:49.011Z,15.60
2018-09-11T04:54:17.211Z,15.60
2018-09-11T04:56:46.992Z,15.70
2018-09-11T04:59:17.346Z,15.70
2018-09-11T05:01:45.938Z,15.70
2018-09-11T05:04:16.961Z,15.70
2018-09-11T05:06:45.971Z,15.80
2018-09-11T05:09:15.256Z,15.90
2018-09-11T05:15:06.467Z,15.90
2018-09-11T05:20:25.054Z,16.00
2018-09-11T05:22:53.446Z,16.00
2018-09-11T05:25:24.238Z,16.00
2018-09-11T05:27:52.472Z,16.00
2018-09-11T05:30:21.090Z,16.00
2018-09-11T05:32:49.301Z,16.00
2018-09-11T05:35:17.489Z,16.10
2018-09-11T05:37:46.153Z,16.10
2018-09-11T05:40:14.349Z,16.10
2018-09-11T05:42:42.573Z,16.10
2018-09-11T05:45:11.209Z,16.10
2018-09-11T05:47:39.855Z,16.00
2018-09-11T05:50:08.054Z,16.00
2018-09-11T05:52:36.722Z,16.00
2018-09-11T05:55:04.929Z,16.00
2018-09-11T05:57:33.253Z,16.00
2018-09-11T06:00:01.647Z,16.00
2018-09-11T06:02:29.849Z,16.00
2018-09-11T06:04:58.059Z,16.10
2018-09-11T06:07:27.117Z,16.10
2018-09-11T06:09:55.329Z,16.10
2018-09-11T06:12:23.537Z,16.10
2018-09-11T06:14:51.741Z,16.10
2018-09-11T06:17:19.935Z,16.10
2018-09-11T06:19:48.159Z,16.20
2018-09-11T06:22:16.385Z,16.30
2018-09-11T06:24:44.600Z,16.20
2018-09-11T06:27:12.790Z,16.30
2018-09-11T06:29:42.066Z,16.30
2018-09-11T06:32:10.328Z,16.30
2018-09-11T06:34:38.510Z,16.40
2018-09-11T06:37:06.790Z,16.40
2018-09-11T06:39:35.024Z,16.50
2018-09-11T06:42:03.222Z,16.50
2018-09-11T06:44:31.571Z,16.50
2018-09-11T06:46:59.841Z,16.60
2018-09-11T06:49:27.981Z,16.60
2018-09-11T06:51:56.566Z,16.70
2018-09-11T06:54:24.832Z,16.70
2018-09-11T06:56:53.013Z,16.80
2018-09-11T06:59:21.257Z,16.90
2018-09-11T07:01:49.531Z,16.90
2018-09-11T07:04:17.669Z,17.00
2018-09-11T07:06:46.401Z,17.00
2018-09-11T07:09:15.841Z,17.00
2018-09-11T07:11:44.025Z,17.00
2018-09-11T07:14:12.651Z,17.10
2018-09-11T07:16:40.825Z,17.10
2018-09-11T07:19:09.003Z,17.10
2018-09-11T07:21:37.829Z,17.10
2018-09-11T07:24:06.209Z,17.30
2018-09-11T07:26:34.405Z,17.30
2018-09-11T07:29:03.128Z,17.40
2018-09-11T07:31:31.319Z,17.50
2018-09-11T07:34:00.034Z,17.60
2018-09-11T07:36:28.337Z,17.60
2018-09-11T07:38:56.482Z,17.70
2018-09-11T07:41:24.673Z,17.70
2018-09-11T07:43:53.417Z,17.70
2018-09-11T07:46:21.637Z,17.80
2018-09-11T07:48:49.946Z,17.90
2018-09-11T07:51:18.269Z,17.90
2018-09-11T07:53:46.491Z,17.90
2018-09-11T07:56:14.721Z,17.90
2018-09-11T07:58:43.685Z,18.10
2018-09-11T08:01:11.893Z,18.10
2018-09-11T08:03:40.120Z,18.20
2018-09-11T08:06:08.872Z,18.20
2018-09-11T08:08:37.029Z,18.20
2018-09-11T08:11:05.344Z,18.30
2018-09-11T08:13:33.831Z,18.30
2018-09-11T08:16:02.012Z,18.40
2018-09-11T08:18:30.201Z,18.50
2018-09-11T08:20:58.716Z,18.50
2018-09-11T08:23:26.901Z,18.60
2018-09-11T08:25:55.133Z,18.60
2018-09-11T08:28:23.621Z,18.80
2018-09-11T08:30:52.328Z,18.90
2018-09-11T08:33:20.506Z,18.90
2018-09-11T08:35:49.694Z,18.90
2018-09-11T08:38:17.926Z,19.00
2018-09-11T08:40:46.105Z,19.00
2018-09-11T08:43:14.626Z,19.20
2018-09-11T08:45:42.833Z,19.20
2018-09-11T08:48:11.009Z,19.30
2018-09-11T08:50:39.645Z,19.30
2018-09-11T08:53:07.885Z,19.50
2018-09-11T08:55:36.066Z,19.40
2018-09-11T08:58:04.303Z,19.30
2018-09-11T09:00:32.475Z,19.50
2018-09-11T09:03:00.652Z,19.70
2018-09-11T09:05:29.353Z,19.90
2018-09-11T09:07:57.537Z,19.90
2018-09-11T09:10:25.715Z,20.10
2018-09-11T09:12:53.925Z,20.10
2018-09-11T09:15:22.167Z,20.10
2018-09-11T09:17:50.359Z,20.00
2018-09-11T09:20:18.969Z,20.30
2018-09-11T09:22:47.177Z,20.30
2018-09-11T09:25:15.380Z,20.30
2018-09-11T09:27:43.629Z,20.40
2018-09-11T09:30:12.004Z,20.50
2018-09-11T09:32:40.189Z,20.70
2018-09-11T09:35:08.814Z,20.70
2018-09-11T09:37:37.107Z,20.70
2018-09-11T09:40:05.293Z,20.70
2018-09-11T09:42:34.098Z,20.70
2018-09-11T09:45:02.298Z,20.90
2018-09-11T09:47:30.501Z,20.90
2018-09-11T09:49:59.525Z,21.20
2018-09-11T09:52:27.705Z,21.20
2018-09-11T09:54:55.881Z,21.50
2018-09-11T09:57:24.103Z,21.50
2018-09-11T09:59:52.306Z,21.60
2018-09-11T10:02:22.846Z,21.80
2018-09-11T10:04:52.193Z,22.00
2018-09-11T10:07:20.981Z,21.70
2018-09-11T10:09:49.242Z,22.00
2018-09-11T10:12:18.433Z,21.90
2018-09-11T10:14:46.673Z,21.70
2018-09-11T10:17:14.871Z,21.80
2018-09-11T10:19:44.026Z,21.70
2018-09-11T10:22:12.277Z,21.60
2018-09-11T10:24:40.473Z,21.60
2018-09-11T10:27:08.946Z,21.80
2018-09-11T10:29:37.121Z,21.80
2018-09-11T10:32:05.354Z,22.30
2018-09-11T10:34:33.601Z,22.00
2018-09-11T10:37:01.787Z,21.60
2018-09-11T10:39:30.429Z,21.60
2018-09-11T10:41:58.906Z,21.80
2018-09-11T10:44:27.213Z,22.10
2018-09-11T10:46:55.405Z,22.10
2018-09-11T10:49:23.707Z,22.60
2018-09-11T10:51:52.130Z,22.80
2018-09-11T10:54:20.298Z,22.60
2018-09-11T10:56:48.848Z,22.70
2018-09-11T10:59:17.032Z,22.80
2018-09-11T11:01:45.258Z,23.00
2018-09-11T11:04:13.994Z,23.10
2018-09-11T11:06:42.269Z,22.70
2018-09-11T11:09:11.163Z,22.70
2018-09-11T11:11:39.661Z,23.10
2018-09-11T11:14:08.345Z,23.10
2018-09-11T11:16:36.524Z,23.40
2018-09-11T11:19:05.369Z,23.00
2018-09-11T11:21:33.547Z,23.00
2018-09-11T11:24:01.720Z,22.90
2018-09-11T11:26:30.304Z,23.20
2018-09-11T11:28:58.506Z,23.20
2018-09-11T11:31:26.709Z,23.20
2018-09-11T11:33:55.204Z,23.20
2018-09-11T11:36:23.534Z,23.20
2018-09-11T11:38:51.601Z,23.80
2018-09-11T11:41:20.433Z,23.90
2018-09-11T11:43:48.869Z,23.60
2018-09-11T11:46:17.042Z,23.50
2018-09-11T11:48:45.690Z,23.50
2018-09-11T11:51:13.883Z,23.50
2018-09-11T11:53:42.060Z,23.60
2018-09-11T11:56:10.299Z,23.50
2018-09-11T11:58:38.481Z,23.50
2018-09-11T12:01:06.705Z,23.40
2018-09-11T12:03:35.268Z,23.40
2018-09-11T12:06:03.554Z,23.50
2018-09-11T12:08:32.210Z,23.70
2018-09-11T12:11:00.565Z,23.80
2018-09-11T12:13:28.782Z,23.80
2018-09-11T12:15:56.968Z,23.80
2018-09-11T12:18:25.343Z,23.70
2018-09-11T12:20:53.528Z,23.80
2018-09-11T12:23:21.746Z,23.60
2018-09-11T12:25:50.200Z,23.70
2018-09-11T12:28:18.384Z,23.50
2018-09-11T12:30:46.565Z,23.40
2018-09-11T12:33:15.009Z,23.40
2018-09-11T12:35:43.815Z,23.30
2018-09-11T12:38:12.008Z,23.20
2018-09-11T12:40:40.363Z,23.20
2018-09-11T12:43:08.990Z,23.20
2018-09-11T12:45:37.459Z,23.20
2018-09-11T12:48:06.260Z,23.30
2018-09-11T12:50:34.145Z,23.20
2018-09-11T12:53:02.325Z,23.10
2018-09-11T12:55:30.518Z,23.10
2018-09-11T12:57:58.730Z,23.20
2018-09-11T13:00:26.914Z,23.40
2018-09-11T13:02:55.565Z,23.30
2018-09-11T13:05:23.771Z,23.20
2018-09-11T13:07:51.969Z,23.30
2018-09-11T13:10:20.193Z,23.50
2018-09-11T13:12:48.395Z,23.40
2018-09-11T13:15:16.630Z,23.40
2018-09-11T13:17:44.939Z,23.60
2018-09-11T13:20:13.122Z,24.00
2018-09-11T13:22:41.339Z,24.10
2018-09-11T13:25:09.983Z,23.80
2018-09-11T13:27:38.167Z,23.80
2018-09-11T13:30:06.393Z,23.70
2018-09-11T13:32:35.205Z,23.60
2018-09-11T13:35:03.454Z,23.70
2018-09-11T13:37:31.671Z,23.80
2018-09-11T13:40:00.332Z,23.80
2018-09-11T13:42:28.530Z,23.90
2018-09-11T13:44:56.777Z,23.70
2018-09-11T13:47:25.256Z,23.80
2018-09-11T13:49:53.297Z,23.70
2018-09-11T13:52:21.489Z,23.60
2018-09-11T13:54:50.301Z,23.60
2018-09-11T13:57:18.507Z,23.70
2018-09-11T13:59:46.718Z,23.70
2018-09-11T14:02:15.443Z,23.60
2018-09-11T14:04:43.684Z,23.80
2018-09-11T14:07:11.881Z,23.70
2018-09-11T14:09:40.130Z,23.70
2018-09-11T14:12:08.364Z,23.80
2018-09-11T14:14:36.584Z,23.70
2018-09-11T14:17:05.721Z,23.60
2018-09-11T14:19:33.967Z,23.70
2018-09-11T14:22:02.225Z,23.70
2018-09-11T14:24:31.401Z,23.80
2018-09-11T14:26:59.585Z,23.70
2018-09-11T14:29:27.786Z,23.60
2018-09-11T14:31:56.464Z,23.50
2018-09-11T14:34:24.749Z,23.60
2018-09-11T14:36:52.884Z,23.60
2018-09-11T14:39:21.219Z,23.50
2018-09-11T14:41:49.441Z,23.30
2018-09-11T14:44:17.663Z,23.40
2018-09-11T14:46:46.175Z,23.20
2018-09-11T14:49:14.402Z,23.30
2018-09-11T14:51:42.594Z,23.30
2018-09-11T14:54:11.401Z,23.40
2018-09-11T14:56:39.613Z,23.40
2018-09-11T14:59:07.829Z,23.40
2018-09-11T15:01:36.030Z,23.40
2018-09-11T15:04:04.232Z,23.30
2018-09-11T15:06:32.517Z,23.40
2018-09-11T15:09:01.401Z,23.40
2018-09-11T15:11:29.626Z,23.40
2018-09-11T15:13:57.825Z,23.60
2018-09-11T15:16:26.750Z,23.80
2018-09-11T15:18:54.966Z,24.00
2018-09-11T15:21:23.175Z,24.20
2018-09-11T15:23:52.273Z,24.20
2018-09-11T15:26:20.485Z,24.20
2018-09-11T15:28:48.709Z,24.20
2018-09-11T15:31:17.722Z,24.20
2018-09-11T15:33:45.949Z,24.00
2018-09-11T15:36:14.202Z,23.70
2018-09-11T15:38:42.857Z,23.80
2018-09-11T15:41:12.078Z,23.80
2018-09-11T15:43:40.370Z,23.70
2018-09-11T15:46:09.174Z,23.70
2018-09-11T15:48:37.470Z,23.70
2018-09-11T15:51:05.721Z,23.60
2018-09-11T15:53:33.969Z,23.50
2018-09-11T15:56:02.197Z,23.50
2018-09-11T15:58:30.421Z,23.50
2018-09-11T16:00:59.748Z,23.50
2018-09-11T16:03:27.939Z,23.50
2018-09-11T16:05:56.131Z,23.40
2018-09-11T16:08:24.333Z,23.50
2018-09-11T16:10:53.178Z,23.70
2018-09-11T16:13:22.023Z,23.70
2018-09-11T16:15:51.345Z,23.70
2018-09-11T16:18:19.537Z,23.70
2018-09-11T16:20:47.724Z,23.60
2018-09-11T16:23:16.673Z,23.60
2018-09-11T16:25:44.857Z,23.50
2018-09-11T16:28:13.052Z,23.50
2018-09-11T16:30:41.889Z,23.50
2018-09-11T16:33:10.073Z,23.40
2018-09-11T16:35:38.294Z,23.30
2018-09-11T16:38:06.869Z,23.30
2018-09-11T16:40:35.063Z,23.30
2018-09-11T16:43:03.273Z,23.30
2018-09-11T16:45:31.497Z,23.20
2018-09-11T16:47:59.720Z,23.20
2018-09-11T16:50:27.994Z,23.10
2018-09-11T16:52:56.689Z,23.10
2018-09-11T16:55:24.907Z,23.00
2018-09-11T16:57:53.161Z,22.90
2018-09-11T17:00:21.388Z,22.90
2018-09-11T17:02:49.618Z,22.90
2018-09-11T17:05:17.806Z,22.90
2018-09-11T17:07:46.574Z,22.70
2018-09-11T17:10:14.781Z,22.60
2018-09-11T17:12:43.129Z,22.60
2018-09-11T17:15:11.357Z,22.50
2018-09-11T17:17:39.576Z,22.40
2018-09-11T17:20:07.842Z,22.40
2018-09-11T17:22:36.817Z,22.30
2018-09-11T17:25:05.028Z,22.30
2018-09-11T17:27:33.217Z,22.30
2018-09-11T17:30:01.450Z,22.30
2018-09-11T17:32:29.647Z,22.10
2018-09-11T17:34:57.837Z,22.10
2018-09-11T17:37:26.062Z,22.00
2018-09-11T17:39:54.290Z,22.00
2018-09-11T17:42:22.511Z,21.90
2018-09-11T17:44:50.746Z,21.90
2018-09-11T17:47:18.948Z,21.80
2018-09-11T17:49:47.185Z,21.80
2018-09-11T17:52:15.608Z,21.70
2018-09-11T17:54:43.799Z,21.70
2018-09-11T17:57:14.025Z,21.60
2018-09-11T17:59:43.786Z,21.50
2018-09-11T18:02:13.753Z,21.40
2018-09-11T18:04:42.461Z,21.40
2018-09-11T18:07:13.174Z,21.40
2018-09-11T18:09:41.438Z,21.30
2018-09-11T18:12:10.117Z,21.30
2018-09-11T18:14:38.399Z,21.30
2018-09-11T18:17:06.638Z,21.20
2018-09-11T18:19:35.330Z,21.20
2018-09-11T18:22:04.234Z,21.10
2018-09-11T18:24:32.493Z,21.00
2018-09-11T18:27:00.701Z,21.00
2018-09-11T18:29:29.717Z,21.00
2018-09-11T18:31:57.914Z,20.90
2018-09-11T18:34:26.094Z,21.00
2018-09-11T18:36:54.762Z,20.80
2018-09-11T18:39:22.945Z,20.80
2018-09-11T18:41:51.197Z,20.90
2018-09-11T18:44:19.442Z,20.80
2018-09-11T18:46:48.346Z,20.70
2018-09-11T18:49:17.253Z,20.60
2018-09-11T18:51:45.714Z,20.60
2018-09-11T18:54:14.086Z,20.60
2018-09-11T18:56:42.349Z,20.50
2018-09-11T18:59:11.509Z,20.50
2018-09-11T19:01:40.353Z,20.40
2018-09-11T19:04:09.594Z,20.40
2018-09-11T19:06:39.344Z,20.40
2018-09-11T19:09:08.765Z,20.30
2018-09-11T19:11:40.799Z,20.20
2018-09-11T19:14:10.486Z,20.20
2018-09-11T19:16:39.442Z,20.20
2018-09-11T19:19:07.933Z,20.20
2018-09-11T19:21:38.209Z,20.20
2018-09-11T19:24:06.466Z,20.20
2018-09-11T19:26:36.101Z,20.20
2018-09-11T19:29:05.522Z,20.20
2018-09-11T19:31:34.726Z,20.10
2018-09-11T19:34:04.922Z,20.20
2018-09-11T19:36:33.153Z,20.20
2018-09-11T19:39:01.434Z,20.10
2018-09-11T19:41:31.412Z,20.10
2018-09-11T19:43:59.650Z,20.00
2018-09-11T19:46:27.950Z,19.90
2018-09-11T19:48:57.055Z,19.80
2018-09-11T19:51:25.474Z,19.80
2018-09-11T19:53:53.737Z,19.80
2018-09-11T19:56:23.122Z,19.80
2018-09-11T19:58:51.392Z,19.80
2018-09-11T20:01:19.615Z,19.70
2018-09-11T20:03:48.315Z,19.60
2018-09-11T20:06:16.521Z,19.60
2018-09-11T20:08:44.725Z,19.50
2018-09-11T20:11:13.756Z,19.50
2018-09-11T20:13:41.949Z,19.40
2018-09-11T20:16:10.133Z,19.40
2018-09-11T20:18:38.440Z,19.30
2018-09-11T20:21:06.649Z,19.30
2018-09-11T20:23:34.905Z,19.30
2018-09-11T20:26:03.138Z,19.20
2018-09-11T20:28:31.350Z,19.10
2018-09-11T20:30:59.994Z,19.10
2018-09-11T20:33:29.833Z,19.00
2018-09-11T20:35:57.997Z,19.00
2018-09-11T20:38:26.170Z,19.00
2018-09-11T20:40:54.531Z,18.90
2018-09-11T20:43:22.717Z,18.90
2018-09-11T20:45:50.929Z,18.90
2018-09-11T20:48:19.530Z,18.80
2018-09-11T20:50:47.733Z,18.80
2018-09-11T20:53:15.950Z,18.80
2018-09-11T20:55:44.725Z,18.80
2018-09-11T20:58:13.102Z,18.80
2018-09-11T21:00:41.325Z,18.90
2018-09-11T21:03:10.030Z,18.80
2018-09-11T21:05:38.233Z,18.80
2018-09-11T21:08:06.424Z,18.90
2018-09-11T21:10:34.661Z,18.90
2018-09-11T21:13:02.835Z,18.90
2018-09-11T21:15:31.289Z,19.00
2018-09-11T21:18:00.065Z,19.10
2018-09-11T21:20:28.246Z,19.10
2018-09-11T21:22:56.481Z,19.10
2018-09-11T21:25:24.819Z,19.20
2018-09-11T21:27:53.041Z,19.10
2018-09-11T21:30:21.262Z,19.20
2018-09-11T21:32:49.616Z,19.20
2018-09-11T21:35:17.827Z,19.20
2018-09-11T21:37:46.090Z,19.30
2018-09-11T21:40:15.078Z,19.30
2018-09-11T21:42:43.321Z,19.30
2018-09-11T21:45:11.645Z,19.30
2018-09-11T21:47:40.296Z,19.30
2018-09-11T21:50:08.502Z,19.30
2018-09-11T21:52:36.729Z,19.30
2018-09-11T21:55:05.528Z,19.30
2018-09-11T21:57:33.754Z,19.20
2018-09-11T22:00:02.362Z,19.20
2018-09-11T22:02:30.826Z,19.30
2018-09-11T22:04:59.544Z,19.30
2018-09-11T22:07:27.762Z,19.30
2018-09-11T22:09:56.550Z,19.30
2018-09-11T22:12:24.761Z,19.20
2018-09-11T22:14:52.965Z,19.20
2018-09-11T22:17:21.552Z,19.30
2018-09-11T22:19:49.786Z,19.30
2018-09-11T22:22:18.005Z,19.30
2018-09-11T22:24:46.242Z,19.30
2018-09-11T22:27:14.486Z,19.30
2018-09-11T22:29:42.693Z,19.30
2018-09-11T22:32:10.890Z,19.30
2018-09-11T22:34:39.102Z,19.20
2018-09-11T22:37:07.338Z,19.30
2018-09-11T22:39:35.562Z,19.20
2018-09-11T22:42:03.840Z,19.20
2018-09-11T22:44:32.071Z,19.30
2018-09-11T22:47:00.490Z,19.20
2018-09-11T22:49:28.730Z,19.10
2018-09-11T22:51:56.966Z,19.20
2018-09-11T22:54:25.569Z,19.10
2018-09-11T22:56:53.930Z,19.20
2018-09-11T22:59:22.171Z,19.20
2018-09-11T23:01:50.714Z,19.20
2018-09-11T23:04:18.927Z,19.20
2018-09-11T23:06:47.113Z,19.20
2018-09-11T23:09:15.836Z,19.10
2018-09-11T23:11:44.042Z,19.20
2018-09-11T23:14:12.243Z,19.20
2018-09-11T23:16:41.007Z,19.20
2018-09-11T23:19:09.226Z,19.20
2018-09-11T23:21:37.434Z,19.20
2018-09-11T23:24:06.270Z,19.10
2018-09-11T23:26:34.486Z,19.20
2018-09-11T23:29:02.697Z,19.20
2018-09-11T23:31:31.027Z,19.20
2018-09-11T23:33:59.257Z,19.10
2018-09-11T23:36:27.982Z,19.10
2018-09-11T23:38:56.697Z,19.10
2018-09-11T23:41:24.917Z,19.10
2018-09-11T23:43:53.137Z,19.10
2018-09-11T23:46:21.389Z,19.10
2018-09-11T23:48:49.581Z,19.10
2018-09-11T23:51:17.779Z,19.10
2018-09-11T23:53:46.669Z,19.10
2018-09-11T23:56:14.870Z,19.10
2018-09-11T23:58:43.075Z,19.10
